sensor_id;sensor_type;location;lat;lon;timestamp;temperature;humidity
28297;DHT22;62078;49.366;8.172;2022-08-21T12:41:51;26.10;42.90
28297;DHT22;62078;49.366;8.172;2022-08-21T12:44:27;26.00;42.70
28297;DHT22;62078;49.366;8.172;2022-08-21T12:47:05;26.10;42.70
28297;DHT22;62078;49.366;8.172;2022-08-21T12:49:46;26.00;42.60
28297;DHT22;62078;49.366;8.172;2022-08-21T12:52:28;26.10;42.70
28297;DHT22;62078;49.366;8.172;2022-08-21T12:54:54;26.10;42.70
28297;DHT22;62078;49.366;8.172;2022-08-21T12:57:26;26.00;42.60
28297;DHT22;62078;49.366;8.172;2022-08-21T13:00:03;26.10;42.70
28297;DHT22;62078;49.366;8.172;2022-08-21T13:02:37;26.10;42.60
28297;DHT22;62078;49.366;8.172;2022-08-21T13:05:07;26.00;42.60
28297;DHT22;62078;49.366;8.172;2022-08-21T13:07:35;26.00;42.50
28297;DHT22;62078;49.366;8.172;2022-08-21T13:10:25;26.10;42.40
28297;DHT22;62078;49.366;8.172;2022-08-21T13:12:55;26.10;42.30
28297;DHT22;62078;49.366;8.172;2022-08-21T13:15:28;26.00;42.10
28297;DHT22;62078;49.366;8.172;2022-08-21T13:17:54;26.10;42.10
28297;DHT22;62078;49.366;8.172;2022-08-21T13:20:32;26.10;42.10
28297;DHT22;62078;49.366;8.172;2022-08-21T13:23:01;26.10;42.10
28297;DHT22;62078;49.366;8.172;2022-08-21T13:25:29;26.10;42.10
28297;DHT22;62078;49.366;8.172;2022-08-21T13:30:28;26.10;42.20
28297;DHT22;62078;49.366;8.172;2022-08-21T13:33:02;26.00;42.20
28297;DHT22;62078;49.366;8.172;2022-08-21T13:38:13;26.00;42.20
28297;DHT22;62078;49.366;8.172;2022-08-21T13:40:49;26.10;42.20
28297;DHT22;62078;49.366;8.172;2022-08-21T13:43:20;26.00;42.10
28297;DHT22;62078;49.366;8.172;2022-08-21T13:45:52;26.00;42.20
28297;DHT22;62078;49.366;8.172;2022-08-21T13:48:20;26.10;42.20
28297;DHT22;62078;49.366;8.172;2022-08-21T13:50:46;26.00;42.20
28297;DHT22;62078;49.366;8.172;2022-08-21T13:55:56;26.10;42.20
28297;DHT22;62078;49.366;8.172;2022-08-21T13:58:32;26.10;42.20
28297;DHT22;62078;49.366;8.172;2022-08-21T14:00:59;26.10;42.20
28297;DHT22;62078;49.366;8.172;2022-08-21T14:03:44;26.10;42.20
28297;DHT22;62078;49.366;8.172;2022-08-21T14:06:19;26.10;42.20
28297;DHT22;62078;49.366;8.172;2022-08-21T14:08:53;26.10;42.30
28297;DHT22;62078;49.366;8.172;2022-08-21T14:11:21;26.10;42.50
28297;DHT22;62078;49.366;8.172;2022-08-21T14:13:57;26.20;42.60
28297;DHT22;62078;49.366;8.172;2022-08-21T14:16:27;26.20;43.00
28297;DHT22;62078;49.366;8.172;2022-08-21T14:19:09;26.20;42.40
28297;DHT22;62078;49.366;8.172;2022-08-21T14:21:42;26.20;42.30
28297;DHT22;62078;49.366;8.172;2022-08-21T14:26:54;26.20;42.00
28297;DHT22;62078;49.366;8.172;2022-08-21T14:29:25;26.20;41.80
28297;DHT22;62078;49.366;8.172;2022-08-21T14:31:57;26.20;41.40
28297;DHT22;62078;49.366;8.172;2022-08-21T14:34:28;26.20;41.20
28297;DHT22;62078;49.366;8.172;2022-08-21T14:36:55;26.20;41.10
28297;DHT22;62078;49.366;8.172;2022-08-21T14:39:21;26.20;40.80
28297;DHT22;62078;49.366;8.172;2022-08-21T14:41:48;26.20;40.60
28297;DHT22;62078;49.366;8.172;2022-08-21T14:44:17;26.20;40.30
28297;DHT22;62078;49.366;8.172;2022-08-21T14:46:44;26.30;40.10
28297;DHT22;62078;49.366;8.172;2022-08-21T14:49:11;26.30;39.90
28297;DHT22;62078;49.366;8.172;2022-08-21T14:51:37;26.30;39.80
28297;DHT22;62078;49.366;8.172;2022-08-21T14:54:05;26.30;39.90
28297;DHT22;62078;49.366;8.172;2022-08-21T14:56:32;26.30;40.00
28297;DHT22;62078;49.366;8.172;2022-08-21T14:59:04;26.30;40.00
28297;DHT22;62078;49.366;8.172;2022-08-21T15:01:32;26.30;39.90
28297;DHT22;62078;49.366;8.172;2022-08-21T15:03:58;26.30;39.40
28297;DHT22;62078;49.366;8.172;2022-08-21T15:06:24;26.30;39.30
28297;DHT22;62078;49.366;8.172;2022-08-21T15:08:50;26.30;39.20
28297;DHT22;62078;49.366;8.172;2022-08-21T15:11:19;26.30;39.20
28297;DHT22;62078;49.366;8.172;2022-08-21T15:13:46;26.30;39.30
28297;DHT22;62078;49.366;8.172;2022-08-21T15:16:12;26.30;39.80
28297;DHT22;62078;49.366;8.172;2022-08-21T15:18:39;26.30;39.20
28297;DHT22;62078;49.366;8.172;2022-08-21T15:21:05;26.30;39.20
28297;DHT22;62078;49.366;8.172;2022-08-21T15:23:31;26.30;40.00
28297;DHT22;62078;49.366;8.172;2022-08-21T15:25:57;26.30;39.40
28297;DHT22;62078;49.366;8.172;2022-08-21T15:28:26;26.30;39.50
28297;DHT22;62078;49.366;8.172;2022-08-21T15:30:52;26.30;40.00
28297;DHT22;62078;49.366;8.172;2022-08-21T15:33:18;26.40;39.50
28297;DHT22;62078;49.366;8.172;2022-08-21T15:35:45;26.30;39.20
28297;DHT22;62078;49.366;8.172;2022-08-21T15:38:12;26.30;39.40
28297;DHT22;62078;49.366;8.172;2022-08-21T15:40:40;26.30;39.40
28297;DHT22;62078;49.366;8.172;2022-08-21T15:43:06;26.40;39.40
28297;DHT22;62078;49.366;8.172;2022-08-21T15:45:35;26.40;39.40
28297;DHT22;62078;49.366;8.172;2022-08-21T15:48:01;26.40;39.40
28297;DHT22;62078;49.366;8.172;2022-08-21T15:50:28;26.40;39.50
28297;DHT22;62078;49.366;8.172;2022-08-21T15:52:54;26.50;39.80
28297;DHT22;62078;49.366;8.172;2022-08-21T15:55:20;26.50;40.80
28297;DHT22;62078;49.366;8.172;2022-08-21T15:57:48;26.50;40.80
28297;DHT22;62078;49.366;8.172;2022-08-21T16:00:18;26.50;40.00
28297;DHT22;62078;49.366;8.172;2022-08-21T16:02:47;26.50;39.90
28297;DHT22;62078;49.366;8.172;2022-08-21T16:05:15;26.50;40.30
28297;DHT22;62078;49.366;8.172;2022-08-21T16:07:42;26.50;40.40
28297;DHT22;62078;49.366;8.172;2022-08-21T16:10:09;26.40;40.50
28297;DHT22;62078;49.366;8.172;2022-08-21T16:12:38;26.40;40.60
28297;DHT22;62078;49.366;8.172;2022-08-21T16:15:08;26.50;40.00
28297;DHT22;62078;49.366;8.172;2022-08-21T16:17:36;26.50;39.90
28297;DHT22;62078;49.366;8.172;2022-08-21T16:20:08;26.50;39.60
28297;DHT22;62078;49.366;8.172;2022-08-21T16:22:34;26.60;39.40
28297;DHT22;62078;49.366;8.172;2022-08-21T16:25:00;26.60;39.30
28297;DHT22;62078;49.366;8.172;2022-08-21T16:27:26;26.60;39.20
28297;DHT22;62078;49.366;8.172;2022-08-21T16:29:52;26.60;39.20
28297;DHT22;62078;49.366;8.172;2022-08-21T16:32:18;26.60;39.40
28297;DHT22;62078;49.366;8.172;2022-08-21T16:34:46;26.50;39.40
28297;DHT22;62078;49.366;8.172;2022-08-21T16:37:16;26.50;39.70
28297;DHT22;62078;49.366;8.172;2022-08-21T16:39:42;26.50;39.80
28297;DHT22;62078;49.366;8.172;2022-08-21T16:42:13;26.50;40.00
28297;DHT22;62078;49.366;8.172;2022-08-21T16:44:41;26.50;39.60
28297;DHT22;62078;49.366;8.172;2022-08-21T16:47:07;26.50;39.30
28297;DHT22;62078;49.366;8.172;2022-08-21T16:49:33;26.50;39.40
28297;DHT22;62078;49.366;8.172;2022-08-21T16:51:59;26.50;39.50
28297;DHT22;62078;49.366;8.172;2022-08-21T16:54:25;26.50;39.60
28297;DHT22;62078;49.366;8.172;2022-08-21T16:56:51;26.50;39.30
28297;DHT22;62078;49.366;8.172;2022-08-21T16:59:17;26.50;39.20
28297;DHT22;62078;49.366;8.172;2022-08-21T17:01:43;26.50;39.40
28297;DHT22;62078;49.366;8.172;2022-08-21T17:04:10;26.50;39.30
28297;DHT22;62078;49.366;8.172;2022-08-21T17:06:35;26.50;39.20
28297;DHT22;62078;49.366;8.172;2022-08-21T17:09:01;26.50;39.40
28297;DHT22;62078;49.366;8.172;2022-08-21T17:11:34;26.50;39.60
28297;DHT22;62078;49.366;8.172;2022-08-21T17:14:04;26.50;39.80
28297;DHT22;62078;49.366;8.172;2022-08-21T17:16:30;26.50;39.70
28297;DHT22;62078;49.366;8.172;2022-08-21T17:18:56;26.40;39.70
28297;DHT22;62078;49.366;8.172;2022-08-21T17:21:22;26.40;39.90
28297;DHT22;62078;49.366;8.172;2022-08-21T17:23:48;26.40;40.00
28297;DHT22;62078;49.366;8.172;2022-08-21T17:26:15;26.40;40.10
28297;DHT22;62078;49.366;8.172;2022-08-21T17:28:42;26.40;40.10
28297;DHT22;62078;49.366;8.172;2022-08-21T17:31:10;26.40;40.30
28297;DHT22;62078;49.366;8.172;2022-08-21T17:33:44;26.40;40.40
28297;DHT22;62078;49.366;8.172;2022-08-21T17:36:17;26.40;40.40
28297;DHT22;62078;49.366;8.172;2022-08-21T17:38:43;26.40;40.80
28297;DHT22;62078;49.366;8.172;2022-08-21T17:41:09;26.40;40.90
28297;DHT22;62078;49.366;8.172;2022-08-21T17:43:35;26.40;41.10
28297;DHT22;62078;49.366;8.172;2022-08-21T17:46:00;26.40;41.10
28297;DHT22;62078;49.366;8.172;2022-08-21T17:48:26;26.40;41.20
28297;DHT22;62078;49.366;8.172;2022-08-21T17:50:52;26.40;41.40
28297;DHT22;62078;49.366;8.172;2022-08-21T17:53:18;26.40;41.60
28297;DHT22;62078;49.366;8.172;2022-08-21T17:55:44;26.40;41.60
28297;DHT22;62078;49.366;8.172;2022-08-21T17:58:12;26.40;41.90
28297;DHT22;62078;49.366;8.172;2022-08-21T18:00:39;26.40;42.00
28297;DHT22;62078;49.366;8.172;2022-08-21T18:03:14;26.30;42.00
28297;DHT22;62078;49.366;8.172;2022-08-21T18:05:44;26.30;41.90
28297;DHT22;62078;49.366;8.172;2022-08-21T18:08:10;26.30;42.10
28297;DHT22;62078;49.366;8.172;2022-08-21T18:10:40;26.30;41.50
28297;DHT22;62078;49.366;8.172;2022-08-21T18:13:07;26.30;41.50
28297;DHT22;62078;49.366;8.172;2022-08-21T18:15:36;26.30;41.40
28297;DHT22;62078;49.366;8.172;2022-08-21T18:18:03;26.20;41.40
28297;DHT22;62078;49.366;8.172;2022-08-21T18:20:30;26.20;41.40
28297;DHT22;62078;49.366;8.172;2022-08-21T18:22:56;26.10;41.30
28297;DHT22;62078;49.366;8.172;2022-08-21T18:25:22;26.10;41.40
28297;DHT22;62078;49.366;8.172;2022-08-21T18:27:48;26.10;41.50
28297;DHT22;62078;49.366;8.172;2022-08-21T18:30:17;26.00;41.40
28297;DHT22;62078;49.366;8.172;2022-08-21T18:32:45;26.00;41.40
28297;DHT22;62078;49.366;8.172;2022-08-21T18:35:12;26.00;41.40
28297;DHT22;62078;49.366;8.172;2022-08-21T18:37:39;25.90;41.50
28297;DHT22;62078;49.366;8.172;2022-08-21T18:40:06;25.90;41.50
